createdAt,value
2018-06-29T00:00:00.405Z,8.65
2018-06-29T00:05:05.810Z,8.10
2018-06-29T00:10:12.192Z,9.18
2018-06-29T00:15:16.776Z,9.15
2018-06-29T00:20:21.668Z,9.03
2018-06-29T00:25:26.396Z,10.10
2018-06-29T00:30:34.875Z,8.85
2018-06-29T00:35:40.250Z,9.88
2018-06-29T00:40:45.101Z,9.28
2018-06-29T00:45:49.938Z,9.40
2018-06-29T00:50:54.686Z,9.23
2018-06-29T00:55:59.814Z,8.65
2018-06-29T01:01:05.272Z,9.08
2018-06-29T01:06:10.240Z,9.53
2018-06-29T01:11:14.489Z,9.90
2018-06-29T01:16:19.414Z,9.85
2018-06-29T01:21:24.369Z,8.23
2018-06-29T01:26:29.389Z,9.63
2018-06-29T01:31:34.349Z,9.00
2018-06-29T01:36:39.194Z,10.38
2018-06-29T01:41:44.237Z,10.98
2018-06-29T01:46:49.065Z,10.80
2018-06-29T01:51:54.293Z,9.75
2018-06-29T01:56:59.259Z,11.88
2018-06-29T02:02:04.522Z,10.25
2018-06-29T02:07:09.256Z,10.85
2018-06-29T02:12:15.156Z,11.33
2018-06-29T02:17:20.064Z,10.50
2018-06-29T02:22:24.810Z,11.30
2018-06-29T02:27:29.462Z,10.35
2018-06-29T02:32:34.278Z,10.88
2018-06-29T02:37:39.028Z,10.93
2018-06-29T02:42:43.836Z,11.00
2018-06-29T02:47:48.640Z,11.38
2018-06-29T02:52:53.533Z,11.25
2018-06-29T02:57:58.181Z,11.18
2018-06-29T03:03:03.129Z,11.45
2018-06-29T03:08:07.967Z,10.78
2018-06-29T03:13:12.809Z,10.58
2018-06-29T03:18:17.569Z,11.20
2018-06-29T03:23:22.316Z,10.10
2018-06-29T03:28:27.598Z,9.25
2018-06-29T03:33:33.590Z,9.50
2018-06-29T03:38:38.331Z,9.83
2018-06-29T03:43:42.983Z,9.58
2018-06-29T03:48:47.805Z,8.58
2018-06-29T03:53:53.174Z,8.75
2018-06-29T03:58:57.903Z,8.45
2018-06-29T04:04:02.720Z,10.00
2018-06-29T04:09:09.108Z,9.08
2018-06-29T04:14:13.880Z,8.55
2018-06-29T04:19:18.499Z,8.95
2018-06-29T04:24:23.407Z,9.73
2018-06-29T04:29:28.305Z,9.48
2018-06-29T04:34:33.240Z,9.78
2018-06-29T04:39:37.876Z,9.55
2018-06-29T04:44:42.568Z,9.18
2018-06-29T04:49:47.360Z,9.80
2018-06-29T04:54:53.028Z,11.05
2018-06-29T04:59:57.968Z,10.70
2018-06-29T05:05:02.952Z,11.22
2018-06-29T05:10:07.958Z,9.90
2018-06-29T05:15:12.796Z,10.48
2018-06-29T05:20:17.427Z,10.78
2018-06-29T05:25:22.179Z,11.48
2018-06-29T05:30:27.025Z,10.93
2018-06-29T05:35:32.023Z,10.20
2018-06-29T05:40:36.805Z,10.35
2018-06-29T05:45:42.170Z,9.35
2018-06-29T05:50:48.430Z,9.03
2018-06-29T05:55:53.383Z,8.93
2018-06-29T06:00:57.698Z,8.48
2018-06-29T06:06:03.097Z,7.97
2018-06-29T06:11:08.064Z,7.75
2018-06-29T06:16:12.891Z,5.87
2018-06-29T06:21:17.465Z,6.47
2018-06-29T06:26:22.274Z,6.10
2018-06-29T06:31:27.022Z,6.72
2018-06-29T06:36:32.430Z,7.03
2018-06-29T06:41:37.218Z,7.70
2018-06-29T06:46:42.117Z,8.35
2018-06-29T06:51:46.778Z,8.58
2018-06-29T06:56:51.618Z,8.73
2018-06-29T07:01:56.536Z,8.45
2018-06-29T07:07:01.376Z,8.55
2018-06-29T07:12:06.458Z,8.63
2018-06-29T07:17:11.270Z,10.15
2018-06-29T07:22:15.496Z,9.58
2018-06-29T07:27:19.919Z,9.20
2018-06-29T07:32:24.741Z,8.85
2018-06-29T07:37:29.490Z,8.23
2018-06-29T07:42:34.640Z,9.43
2018-06-29T07:47:39.292Z,7.97
2018-06-29T07:52:44.034Z,9.45
2018-06-29T07:57:48.940Z,8.85
2018-06-29T08:02:53.698Z,9.00
2018-06-29T08:07:58.996Z,7.65
2018-06-29T08:13:03.821Z,8.98
2018-06-29T08:18:08.561Z,8.88
2018-06-29T08:23:14.724Z,8.50
2018-06-29T08:28:19.363Z,8.58
2018-06-29T08:33:24.404Z,8.93
2018-06-29T08:38:29.442Z,10.35
2018-06-29T08:43:34.470Z,11.28
2018-06-29T08:48:39.836Z,10.55
2018-06-29T08:53:45.400Z,9.43
2018-06-29T08:58:50.511Z,10.30
2018-06-29T09:03:55.407Z,9.83
2018-06-29T09:09:00.238Z,10.55
2018-06-29T09:14:05.625Z,10.45
2018-06-29T09:19:10.671Z,9.50
2018-06-29T09:24:15.626Z,10.05
2018-06-29T09:29:20.558Z,9.58
2018-06-29T09:34:25.274Z,11.20
2018-06-29T09:39:30.436Z,10.80
2018-06-29T09:44:35.505Z,10.82
2018-06-29T09:49:40.431Z,12.58
2018-06-29T09:54:45.482Z,12.30
2018-06-29T09:59:50.117Z,11.22
2018-06-29T10:04:55.081Z,10.85
2018-06-29T10:09:59.787Z,10.03
2018-06-29T10:15:04.853Z,8.28
2018-06-29T10:20:09.666Z,7.65
2018-06-29T10:25:14.843Z,8.85
2018-06-29T10:30:19.670Z,9.45
2018-06-29T10:35:24.629Z,9.45
2018-06-29T10:40:29.384Z,9.40
2018-06-29T10:45:34.184Z,8.63
2018-06-29T10:50:39.032Z,8.98
2018-06-29T10:55:44.305Z,9.00
2018-06-29T11:00:48.965Z,9.05
2018-06-29T11:05:54.003Z,9.90
2018-06-29T11:10:58.969Z,8.63
2018-06-29T11:16:04.578Z,8.70
2018-06-29T11:21:09.312Z,8.80
2018-06-29T11:26:14.188Z,8.55
2018-06-29T11:31:18.812Z,8.23
2018-06-29T11:36:23.077Z,8.40
2018-06-29T11:41:28.286Z,8.23
2018-06-29T11:46:33.247Z,7.67
2018-06-29T11:51:37.853Z,7.90
2018-06-29T11:56:42.582Z,8.28
2018-06-29T12:01:47.461Z,8.45
2018-06-29T12:06:52.406Z,7.92
2018-06-29T12:11:57.149Z,8.08
2018-06-29T12:17:02.036Z,8.38
2018-06-29T12:22:08.077Z,7.95
2018-06-29T12:27:12.686Z,8.23
2018-06-29T12:32:18.145Z,8.65
2018-06-29T12:37:23.158Z,8.50
2018-06-29T12:42:28.128Z,8.18
2018-06-29T12:47:32.869Z,7.80
2018-06-29T12:52:37.441Z,7.37
2018-06-29T12:57:42.382Z,7.87
2018-06-29T13:02:46.599Z,6.92
2018-06-29T13:07:51.249Z,9.30
2018-06-29T13:12:56.994Z,6.78
2018-06-29T13:18:01.578Z,9.18
2018-06-29T13:23:06.242Z,8.43
2018-06-29T13:28:11.108Z,7.37
2018-06-29T13:33:15.448Z,7.72
2018-06-29T13:38:20.299Z,7.12
2018-06-29T13:43:24.995Z,6.12
2018-06-29T13:48:30.192Z,7.40
2018-06-29T13:53:35.233Z,6.75
2018-06-29T13:58:39.855Z,6.30
2018-06-29T14:03:44.597Z,7.33
2018-06-29T14:08:48.960Z,7.47
2018-06-29T14:13:53.748Z,6.67
2018-06-29T14:18:59.041Z,6.83
2018-06-29T14:24:04.766Z,7.17
2018-06-29T14:29:09.738Z,7.65
2018-06-29T14:34:14.573Z,7.28
2018-06-29T14:39:19.568Z,6.75
2018-06-29T14:44:24.733Z,7.55
2018-06-29T14:49:30.983Z,7.15
2018-06-29T14:54:36.018Z,7.28
2018-06-29T14:59:41.024Z,6.75
2018-06-29T15:04:45.966Z,6.97
2018-06-29T15:09:51.136Z,5.95
2018-06-29T15:14:56.298Z,6.83
2018-06-29T15:20:01.432Z,6.87
2018-06-29T15:25:06.468Z,6.37
2018-06-29T15:30:11.545Z,6.90
2018-06-29T15:35:16.454Z,6.83
2018-06-29T15:40:21.367Z,6.87
2018-06-29T15:45:26.237Z,7.42
2018-06-29T15:50:31.370Z,6.50
2018-06-29T15:55:36.220Z,6.90
2018-06-29T16:00:41.132Z,6.05
2018-06-29T16:05:46.829Z,6.70
2018-06-29T16:10:51.632Z,6.12
2018-06-29T16:15:56.472Z,6.58
2018-06-29T16:21:01.439Z,6.95
2018-06-29T16:26:06.369Z,5.83
2018-06-29T16:31:11.132Z,6.00
2018-06-29T16:36:16.039Z,7.10
2018-06-29T16:41:20.738Z,6.60
2018-06-29T16:46:25.596Z,6.30
2018-06-29T16:51:30.338Z,6.55
2018-06-29T16:56:35.181Z,6.45
2018-06-29T17:01:40.008Z,6.53
2018-06-29T17:06:44.955Z,6.37
2018-06-29T17:11:50.000Z,6.53
2018-06-29T17:16:55.203Z,7.40
2018-06-29T17:22:00.089Z,7.47
2018-06-29T17:27:04.860Z,6.85
2018-06-29T17:32:10.290Z,6.30
2018-06-29T17:37:15.363Z,7.05
2018-06-29T17:42:20.167Z,6.42
2018-06-29T17:47:24.920Z,7.12
2018-06-29T17:52:30.338Z,7.10
2018-06-29T17:57:35.211Z,7.40
2018-06-29T18:02:40.569Z,7.08
2018-06-29T18:07:45.596Z,7.08
2018-06-29T18:12:50.613Z,7.25
2018-06-29T18:17:55.801Z,7.17
2018-06-29T18:23:00.913Z,7.67
2018-06-29T18:28:05.617Z,6.87
2018-06-29T18:33:15.540Z,6.72
2018-06-29T18:38:20.474Z,7.37
2018-06-29T18:43:25.353Z,7.25
2018-06-29T18:48:31.934Z,8.20
2018-06-29T18:53:37.197Z,7.20
2018-06-29T18:58:42.191Z,8.50
2018-06-29T19:03:46.801Z,8.55
2018-06-29T19:08:51.729Z,7.87
2018-06-29T19:13:56.669Z,8.28
2018-06-29T19:19:01.619Z,8.78
2018-06-29T19:24:05.912Z,8.83
2018-06-29T19:29:10.780Z,9.03
2018-06-29T19:34:15.498Z,8.63
2018-06-29T19:39:20.480Z,9.30
2018-06-29T19:44:25.403Z,8.25
2018-06-29T19:49:30.205Z,9.18
2018-06-29T19:54:34.929Z,9.18
2018-06-29T19:59:40.012Z,8.95
2018-06-29T20:04:45.261Z,9.70
2018-06-29T20:09:49.984Z,10.40
2018-06-29T20:14:54.224Z,10.45
2018-06-29T20:19:59.067Z,10.93
2018-06-29T20:25:03.980Z,10.13
2018-06-29T20:30:09.450Z,10.93
2018-06-29T20:35:14.384Z,11.10
2018-06-29T20:40:19.104Z,11.68
2018-06-29T20:45:23.882Z,11.20
2018-06-29T20:50:28.641Z,11.97
2018-06-29T20:55:33.513Z,12.25
2018-06-29T21:00:38.473Z,11.68
2018-06-29T21:05:43.317Z,11.78
2018-06-29T21:10:48.147Z,11.97
2018-06-29T21:15:53.816Z,12.23
2018-06-29T21:20:58.761Z,11.55
2018-06-29T21:26:03.793Z,12.00
2018-06-29T21:31:08.444Z,12.55
2018-06-29T21:36:13.152Z,12.23
2018-06-29T21:41:17.881Z,12.18
2018-06-29T21:46:22.830Z,12.00
2018-06-29T21:51:27.673Z,11.95
2018-06-29T21:56:32.315Z,12.43
2018-06-29T22:01:37.998Z,13.05
2018-06-29T22:06:42.902Z,12.85
2018-06-29T22:11:47.943Z,12.80
2018-06-29T22:16:52.779Z,12.43
2018-06-29T22:21:57.529Z,12.82
2018-06-29T22:27:02.214Z,12.88
2018-06-29T22:32:06.918Z,12.90
2018-06-29T22:37:11.829Z,12.68
2018-06-29T22:42:16.458Z,11.65
2018-06-29T22:47:22.408Z,11.53
2018-06-29T22:52:27.338Z,13.00
2018-06-29T22:57:32.115Z,11.80
2018-06-29T23:02:36.466Z,12.47
2018-06-29T23:07:41.273Z,13.22
2018-06-29T23:12:46.111Z,12.53
2018-06-29T23:17:50.952Z,12.25
2018-06-29T23:22:55.820Z,12.47
2018-06-29T23:28:09.503Z,12.85
2018-06-29T23:33:15.712Z,12.88
2018-06-29T23:38:20.377Z,12.30
2018-06-29T23:43:25.288Z,12.65
2018-06-29T23:48:30.458Z,12.78
2018-06-29T23:53:35.274Z,12.68
2018-06-29T23:58:40.209Z,11.68
